Weather at St Vincent Infirmary Heliport

Public forecast

Using degrees Fahrenheit for public forecast. Weather courtesy of forecast.io.

Closest aviation weather report (METAR) to St Vincent Infirmary Heliport

Closest report is Bill & Hillary Clinton National Airport/Adams Field, 5.9 nm (10.9 km) ESE. Retrieved 2021/06/13 10:53 UTC (36 minutes ago):

KLIT 131053Z 30005KT 10SM FEW250 27/24 A2991 RMK AO2 SLP127 T02670239

Closest aviation forecast (TAF) to St Vincent Infirmary Heliport

Closest forecast is Bill & Hillary Clinton National Airport/Adams Field, 5.9 nm (10.9 km) ESE. Retrieved 2021/06/13 06:39 UTC (5 hours ago):

TAF KLIT 130536Z 1306/1406 26003KT P6SM SCT050 BKN250 FM131400 36008KT P6SM SCT050 FM140000 03003KT P6SM SCT250